Time;durP1;ratioP1;P1;durP2;ratioP2;P2;SDS_P1;SDS_P2;PMS_P1;PMS_P2;Temp;Humidity;BMP_temperature;BMP_pressure;BME280_temperature;BME280_humidity;BME280_pressure;Samples;Min_cycle;Max_cycle;Signal;HPM_P1;HPM_P2
2021/06/26 00:03:26;;;;;;;;;18.75;16.75;;;;;;;;8584639;41;11239;-61
2021/06/26 00:09:28;;;;;;;;;17.25;17.25;;;;;;;;8605614;41;11050;-61
2021/06/26 00:15:30;;;;;;;;;21.50;18.50;;;;;;;;8607455;41;10845;-61
2021/06/26 00:21:32;;;;;;;;;19.00;18.25;;;;;;;;8596439;41;10904;-61
2021/06/26 00:27:35;;;;;;;;;21.50;20.25;;;;;;;;8585369;41;11149;-61
2021/06/26 00:33:37;;;;;;;;;20.25;16.75;;;;;;;;8580913;41;10990;-62
2021/06/26 00:39:39;;;;;;;;;16.50;15.50;;;;;;;;8584474;41;10778;-62
2021/06/26 00:45:41;;;;;;;;;11.75;10.75;;;;;;;;8583883;41;10676;-62
2021/06/26 00:51:43;;;;;;;;;12.75;9.50;;;;;;;;8584019;41;10912;-61
2021/06/26 00:57:49;;;;;;;;;13.00;10.50;;;;;;;;8588245;41;12114;-61
2021/06/26 01:03:51;;;;;;;;;12.50;11.25;;;;;;;;8588537;41;10743;-61
2021/06/26 01:09:53;;;;;;;;;14.25;11.00;;;;;;;;8586541;41;10661;-61
2021/06/26 01:15:56;;;;;;;;;10.50;10.50;;;;;;;;8587925;41;11177;-62
2021/06/26 01:22:01;;;;;;;;;10.75;10.25;;;;;;;;8587306;41;10680;-61
2021/06/26 01:28:03;;;;;;;;;12.50;8.50;;;;;;;;8587383;41;10645;-61
2021/06/26 01:34:06;;;;;;;;;11.75;10.75;;;;;;;;8588188;41;10565;-61
2021/06/26 01:40:14;;;;;;;;;11.00;8.50;;;;;;;;8587378;41;11315;-61
2021/06/26 01:46:16;;;;;;;;;12.00;12.00;;;;;;;;8586762;41;10720;-61
2021/06/26 01:52:18;;;;;;;;;11.25;10.75;;;;;;;;8587911;41;11601;-61
2021/06/26 01:58:20;;;;;;;;;17.00;15.00;;;;;;;;8587072;41;11175;-62
2021/06/26 02:04:23;;;;;;;;;19.50;16.75;;;;;;;;8602071;41;10655;-61
2021/06/26 02:10:26;;;;;;;;;19.25;16.00;;;;;;;;8610113;41;10650;-61
2021/06/26 02:16:28;;;;;;;;;25.00;22.50;;;;;;;;8609424;41;11008;-60
2021/06/26 02:22:30;;;;;;;;;24.25;19.75;;;;;;;;8609847;41;10862;-60
2021/06/26 02:28:32;;;;;;;;;15.00;14.75;;;;;;;;8610277;41;11122;-60
2021/06/26 02:34:35;;;;;;;;;15.00;12.75;;;;;;;;8610575;41;11479;-60
2021/06/26 02:40:37;;;;;;;;;9.00;7.75;;;;;;;;8609079;41;10916;-60
2021/06/26 02:46:38;;;;;;;;;12.75;12.75;;;;;;;;8609522;41;11303;-60
2021/06/26 02:52:42;;;;;;;;;10.50;9.25;;;;;;;;8607846;41;10838;-61
2021/06/26 02:58:43;;;;;;;;;10.75;10.00;;;;;;;;8587962;41;10991;-61
2021/06/26 03:04:45;;;;;;;;;10.00;10.00;;;;;;;;8586578;41;10770;-60
2021/06/26 03:10:48;;;;;;;;;16.00;12.50;;;;;;;;8462562;41;5000367;-59
2021/06/26 03:16:50;;;;;;;;;14.25;10.00;;;;;;;;8586051;41;11215;-59
2021/06/26 03:22:52;;;;;;;;;12.00;11.00;;;;;;;;8585658;41;10822;-60
2021/06/26 03:28:53;;;;;;;;;9.50;9.25;;;;;;;;8585291;41;11480;-60
2021/06/26 03:34:55;;;;;;;;;9.50;7.00;;;;;;;;8586042;41;10636;-59
2021/06/26 03:40:57;;;;;;;;;10.50;7.50;;;;;;;;8585555;41;10590;-59
2021/06/26 03:46:59;;;;;;;;;8.25;8.25;;;;;;;;8586313;41;10739;-60
2021/06/26 03:53:01;;;;;;;;;12.25;8.50;;;;;;;;8585164;41;10691;-60
2021/06/26 03:59:03;;;;;;;;;11.50;8.50;;;;;;;;8585091;41;10671;-60
2021/06/26 04:05:06;;;;;;;;;10.00;9.00;;;;;;;;8585074;41;10536;-60
2021/06/26 04:11:08;;;;;;;;;9.50;8.00;;;;;;;;8591332;41;10695;-60
2021/06/26 04:17:09;;;;;;;;;9.50;8.00;;;;;;;;8594000;41;10629;-59
2021/06/26 04:23:11;;;;;;;;;13.50;11.50;;;;;;;;8602413;41;10610;-59
2021/06/26 04:29:13;;;;;;;;;10.75;10.75;;;;;;;;8610254;41;10641;-61
2021/06/26 04:35:19;;;;;;;;;11.50;11.50;;;;;;;;8611189;41;10751;-61
2021/06/26 04:41:22;;;;;;;;;13.50;13.50;;;;;;;;8612149;41;10893;-61
2021/06/26 04:47:27;;;;;;;;;13.75;13.25;;;;;;;;8611550;41;10667;-61
2021/06/26 04:53:29;;;;;;;;;14.25;12.75;;;;;;;;8611311;41;10684;-60
2021/06/26 04:59:32;;;;;;;;;16.25;13.75;;;;;;;;8610763;41;10848;-60
2021/06/26 05:05:34;;;;;;;;;14.25;14.25;;;;;;;;8594404;41;10832;-61
2021/06/26 05:11:37;;;;;;;;;14.50;14.00;;;;;;;;8608405;41;10809;-60
2021/06/26 05:17:40;;;;;;;;;10.25;9.00;;;;;;;;8611869;41;10675;-60
2021/06/26 05:23:42;;;;;;;;;13.00;12.00;;;;;;;;8610520;41;10934;-60
2021/06/26 05:29:44;;;;;;;;;13.50;13.00;;;;;;;;8597243;41;11410;-61
2021/06/26 05:35:46;;;;;;;;;12.75;12.00;;;;;;;;8591195;41;10719;-60
2021/06/26 05:41:48;;;;;;;;;14.50;12.00;;;;;;;;8605079;41;10667;-61
2021/06/26 05:47:50;;;;;;;;;17.00;13.50;;;;;;;;8587788;41;10854;-61
2021/06/26 05:53:52;;;;;;;;;13.50;12.00;;;;;;;;8588005;41;10827;-60
2021/06/26 05:59:54;;;;;;;;;18.75;14.25;;;;;;;;8587699;41;10735;-60
2021/06/26 06:05:56;;;;;;;;;17.75;15.00;;;;;;;;8587481;41;11263;-61
2021/06/26 06:11:57;;;;;;;;;16.25;15.25;;;;;;;;8586884;41;11169;-59
2021/06/26 06:17:59;;;;;;;;;11.25;10.25;;;;;;;;8586782;41;10812;-59
2021/06/26 06:24:01;;;;;;;;;15.25;12.25;;;;;;;;8587368;41;10673;-60
2021/06/26 06:30:04;;;;;;;;;11.75;10.25;;;;;;;;8586534;41;10679;-61
2021/06/26 06:36:07;;;;;;;;;23.00;20.00;;;;;;;;8599191;41;10677;-60
2021/06/26 06:42:10;;;;;;;;;16.75;12.00;;;;;;;;8605724;41;10632;-60
2021/06/26 06:48:11;;;;;;;;;15.50;12.75;;;;;;;;8609634;41;11478;-60
2021/06/26 06:54:13;;;;;;;;;13.50;12.00;;;;;;;;8608644;41;10745;-61
2021/06/26 07:00:16;;;;;;;;;15.00;13.00;;;;;;;;8609412;41;10705;-61
2021/06/26 07:06:18;;;;;;;;;14.50;14.00;;;;;;;;8610385;41;10688;-60
2021/06/26 07:12:19;;;;;;;;;9.25;9.25;;;;;;;;8610388;41;10740;-62
2021/06/26 07:18:22;;;;;;;;;15.50;15.00;;;;;;;;8608467;41;10674;-62
2021/06/26 07:24:24;;;;;;;;;14.75;14.75;;;;;;;;8609215;41;10643;-61
2021/06/26 07:30:26;;;;;;;;;12.50;11.50;;;;;;;;8604745;41;10993;-61
2021/06/26 07:36:29;;;;;;;;;13.75;9.75;;;;;;;;8608364;41;10679;-61
2021/06/26 07:42:30;;;;;;;;;14.75;14.25;;;;;;;;8608888;41;10614;-61
2021/06/26 07:48:33;;;;;;;;;15.75;15.75;;;;;;;;8608367;41;10660;-60
2021/06/26 07:54:35;;;;;;;;;20.00;16.50;;;;;;;;8607890;41;10845;-61
2021/06/26 08:00:37;;;;;;;;;16.00;14.50;;;;;;;;8603060;41;11241;-61
2021/06/26 08:06:39;;;;;;;;;11.25;11.25;;;;;;;;8587872;41;10673;-61
2021/06/26 08:12:41;;;;;;;;;16.75;11.50;;;;;;;;8588703;41;10670;-60
2021/06/26 08:18:43;;;;;;;;;14.50;11.50;;;;;;;;8589096;41;11241;-61
2021/06/26 08:24:45;;;;;;;;;13.50;12.00;;;;;;;;8588668;41;11184;-61
2021/06/26 08:30:47;;;;;;;;;15.75;12.75;;;;;;;;8588738;41;10918;-61
2021/06/26 08:36:50;;;;;;;;;15.00;14.00;;;;;;;;8588651;41;11402;-62
2021/06/26 08:42:53;;;;;;;;;19.50;18.25;;;;;;;;8589882;41;11304;-60
2021/06/26 08:48:55;;;;;;;;;16.75;16.75;;;;;;;;8588198;41;10649;-62
2021/06/26 08:54:57;;;;;;;;;19.75;17.50;;;;;;;;8587706;41;10697;-62
2021/06/26 09:00:59;;;;;;;;;13.25;13.25;;;;;;;;8587527;41;10692;-60
2021/06/26 09:07:01;;;;;;;;;16.75;16.75;;;;;;;;8587242;41;10719;-61
2021/06/26 09:13:12;;;;;;;;;18.25;16.25;;;;;;;;8587282;41;10827;-62
2021/06/26 09:19:14;;;;;;;;;19.75;15.75;;;;;;;;8588416;41;10794;-62
2021/06/26 09:25:35;;;;;;;;;20.00;19.25;;;;;;;;8606599;41;10734;-61
2021/06/26 09:31:59;;;;;;;;;20.00;20.00;;;;;;;;8610817;41;10766;-61
2021/06/26 09:38:07;;;;;;;;;18.00;15.50;;;;;;;;8610005;41;10853;-60
2021/06/26 09:44:11;;;;;;;;;19.50;16.50;;;;;;;;8611582;41;10744;-61
2021/06/26 09:50:25;;;;;;;;;17.75;16.75;;;;;;;;8610563;41;10678;-61
2021/06/26 09:56:37;;;;;;;;;16.00;16.00;;;;;;;;8611684;41;10631;-61
2021/06/26 10:02:39;;;;;;;;;17.00;15.00;;;;;;;;8610401;41;10638;-60
2021/06/26 10:08:42;;;;;;;;;15.75;15.00;;;;;;;;8609822;41;10686;-60
2021/06/26 10:14:45;;;;;;;;;17.25;17.25;;;;;;;;8609686;41;10788;-61
2021/06/26 10:20:48;;;;;;;;;16.75;16.25;;;;;;;;8609243;41;10740;-60
2021/06/26 10:26:51;;;;;;;;;19.75;15.00;;;;;;;;8610403;41;10736;-60
2021/06/26 10:32:59;;;;;;;;;17.25;14.50;;;;;;;;8608288;41;10665;-62
2021/06/26 10:39:03;;;;;;;;;16.75;16.75;;;;;;;;8609796;41;10993;-60
2021/06/26 10:45:23;;;;;;;;;15.50;14.50;;;;;;;;8609307;41;10885;-61
2021/06/26 10:51:34;;;;;;;;;14.50;14.50;;;;;;;;8609435;41;10699;-59
2021/06/26 10:57:46;;;;;;;;;11.25;11.25;;;;;;;;8609610;41;10646;-61
2021/06/26 11:04:06;;;;;;;;;15.75;15.00;;;;;;;;8608975;41;10653;-61
2021/06/26 11:10:12;;;;;;;;;12.75;12.75;;;;;;;;8608638;41;10815;-61
2021/06/26 11:16:18;;;;;;;;;13.00;13.00;;;;;;;;8609064;41;11357;-61
2021/06/26 11:22:21;;;;;;;;;16.00;15.75;;;;;;;;8606011;41;10696;-61
2021/06/26 11:28:42;;;;;;;;;13.25;12.75;;;;;;;;8585651;41;10720;-62
2021/06/26 11:35:03;;;;;;;;;19.75;15.00;;;;;;;;8591581;41;10683;-60
2021/06/26 11:41:10;;;;;;;;;18.25;17.25;;;;;;;;8589137;41;10733;-60
2021/06/26 11:47:12;;;;;;;;;12.50;11.00;;;;;;;;8608000;41;10727;-63
2021/06/26 11:53:16;;;;;;;;;16.25;15.25;;;;;;;;8608442;41;10928;-61
2021/06/26 11:59:18;;;;;;;;;10.00;9.25;;;;;;;;8608444;41;10593;-61
2021/06/26 12:05:20;;;;;;;;;15.75;14.25;;;;;;;;8608708;41;10723;-61
2021/06/26 12:11:25;;;;;;;;;18.25;15.25;;;;;;;;8607603;41;10707;-60
2021/06/26 12:17:27;;;;;;;;;14.25;12.00;;;;;;;;8607035;41;10660;-60
2021/06/26 12:23:29;;;;;;;;;14.25;14.00;;;;;;;;8607828;41;10802;-60
2021/06/26 12:29:31;;;;;;;;;13.75;12.75;;;;;;;;8607622;41;10658;-60
2021/06/26 12:35:33;;;;;;;;;18.00;15.50;;;;;;;;8607391;41;10709;-60
2021/06/26 12:41:35;;;;;;;;;15.00;15.00;;;;;;;;8598549;41;10682;-60
2021/06/26 12:47:37;;;;;;;;;19.25;14.00;;;;;;;;8606645;41;10653;-62
2021/06/26 12:53:51;;;;;;;;;14.75;14.75;;;;;;;;8610300;41;10678;-60
2021/06/26 12:59:53;;;;;;;;;18.00;15.75;;;;;;;;8611113;41;10767;-61
2021/06/26 13:06:08;;;;;;;;;14.25;13.25;;;;;;;;8611319;41;10628;-60
2021/06/26 13:12:24;;;;;;;;;15.50;14.50;;;;;;;;8610673;41;10700;-61
2021/06/26 13:18:26;;;;;;;;;12.00;12.00;;;;;;;;8610333;41;10699;-61
2021/06/26 13:24:28;;;;;;;;;14.00;14.00;;;;;;;;8610522;41;10741;-61
2021/06/26 13:30:30;;;;;;;;;14.50;13.25;;;;;;;;8600026;41;10631;-59
2021/06/26 13:36:32;;;;;;;;;15.00;15.00;;;;;;;;8588893;41;10720;-60
2021/06/26 13:42:35;;;;;;;;;13.25;13.25;;;;;;;;8586056;41;10701;-61
2021/06/26 13:48:37;;;;;;;;;10.50;9.75;;;;;;;;8588623;41;10547;-60
2021/06/26 13:54:38;;;;;;;;;10.75;10.75;;;;;;;;8611234;41;10656;-60
2021/06/26 14:00:40;;;;;;;;;15.50;14.75;;;;;;;;8610196;41;10754;-61
2021/06/26 14:06:43;;;;;;;;;17.75;15.75;;;;;;;;8596875;41;11302;-61
2021/06/26 14:12:45;;;;;;;;;15.75;13.00;;;;;;;;8586446;41;10659;-60
2021/06/26 14:18:47;;;;;;;;;12.00;9.75;;;;;;;;8586401;41;10734;-61
2021/06/26 14:24:49;;;;;;;;;15.25;10.50;;;;;;;;8586873;41;10642;-60
2021/06/26 14:30:51;;;;;;;;;14.50;12.00;;;;;;;;8585799;41;10653;-63
2021/06/26 14:36:53;;;;;;;;;9.00;9.00;;;;;;;;8586184;41;10591;-60
2021/06/26 14:42:55;;;;;;;;;14.50;13.00;;;;;;;;8586644;41;10714;-61
2021/06/26 14:48:57;;;;;;;;;12.50;12.50;;;;;;;;8586598;41;10599;-60
2021/06/26 14:54:59;;;;;;;;;14.50;13.50;;;;;;;;8592478;41;10682;-61
2021/06/26 15:01:01;;;;;;;;;9.75;9.75;;;;;;;;8585917;41;10851;-60
2021/06/26 15:07:04;;;;;;;;;19.00;16.50;;;;;;;;8587050;41;10689;-60
2021/06/26 15:13:06;;;;;;;;;19.50;15.00;;;;;;;;8584969;41;10694;-61
2021/06/26 15:19:08;;;;;;;;;17.00;16.00;;;;;;;;8586252;41;10702;-60
2021/06/26 15:25:10;;;;;;;;;17.75;16.00;;;;;;;;8585522;41;10712;-61
2021/06/26 15:31:12;;;;;;;;;15.25;14.50;;;;;;;;8585459;41;11179;-62
2021/06/26 15:37:16;;;;;;;;;16.25;14.50;;;;;;;;8585259;41;10907;-62
2021/06/26 15:43:18;;;;;;;;;16.50;13.75;;;;;;;;8584218;41;10664;-61
2021/06/26 15:49:22;;;;;;;;;18.50;18.50;;;;;;;;8584700;41;10660;-62
2021/06/26 15:55:23;;;;;;;;;14.75;13.00;;;;;;;;8589544;41;10715;-62
2021/06/26 16:01:26;;;;;;;;;17.50;16.00;;;;;;;;8606919;41;10616;-61
2021/06/26 16:07:28;;;;;;;;;12.00;12.00;;;;;;;;8608512;41;10620;-61
2021/06/26 16:13:30;;;;;;;;;16.00;14.50;;;;;;;;8608422;41;10658;-62
2021/06/26 16:19:35;;;;;;;;;16.00;13.50;;;;;;;;8608469;41;10780;-61
2021/06/26 16:25:37;;;;;;;;;17.00;16.25;;;;;;;;8609064;41;10715;-61
2021/06/26 16:31:39;;;;;;;;;14.25;12.50;;;;;;;;8612746;41;10696;-60
2021/06/26 16:37:44;;;;;;;;;14.75;13.75;;;;;;;;8611167;41;10734;-61
2021/06/26 16:43:45;;;;;;;;;21.75;19.50;;;;;;;;8610886;41;10660;-61
2021/06/26 16:49:47;;;;;;;;;54.00;46.25;;;;;;;;8611647;41;10711;-60
2021/06/26 16:55:53;;;;;;;;;26.00;23.75;;;;;;;;8611019;41;10706;-61
2021/06/26 17:01:55;;;;;;;;;28.50;28.00;;;;;;;;8608579;41;10899;-60
2021/06/26 17:07:58;;;;;;;;;19.00;13.75;;;;;;;;8588715;41;10665;-61
2021/06/26 17:13:59;;;;;;;;;10.50;10.50;;;;;;;;8586078;41;10714;-61
2021/06/26 17:20:03;;;;;;;;;14.25;14.25;;;;;;;;8600827;41;10858;-61
2021/06/26 17:26:05;;;;;;;;;17.00;16.00;;;;;;;;8610094;41;10731;-60
2021/06/26 17:32:07;;;;;;;;;13.75;13.25;;;;;;;;8610725;41;10704;-62
2021/06/26 17:38:09;;;;;;;;;19.50;16.50;;;;;;;;8610103;41;10818;-61
2021/06/26 17:44:11;;;;;;;;;27.00;25.75;;;;;;;;8610127;41;10707;-61
2021/06/26 17:50:15;;;;;;;;;20.00;18.50;;;;;;;;8609510;41;10706;-60
2021/06/26 17:56:18;;;;;;;;;20.25;20.25;;;;;;;;8608409;41;10736;-59
2021/06/26 18:02:20;;;;;;;;;19.00;17.25;;;;;;;;8609298;41;10678;-58
2021/06/26 18:08:22;;;;;;;;;23.75;23.75;;;;;;;;8608679;41;10707;-61
2021/06/26 18:14:24;;;;;;;;;23.25;23.25;;;;;;;;8609701;41;10696;-61
2021/06/26 18:20:29;;;;;;;;;24.00;23.00;;;;;;;;8609409;41;10746;-61
2021/06/26 18:26:32;;;;;;;;;17.00;15.25;;;;;;;;8608240;41;10710;-60
2021/06/26 18:32:34;;;;;;;;;16.00;15.00;;;;;;;;8609507;41;11158;-62
2021/06/26 18:38:38;;;;;;;;;20.00;14.00;;;;;;;;8608065;41;10819;-61
2021/06/26 18:44:40;;;;;;;;;23.00;21.75;;;;;;;;8608917;41;10658;-60
2021/06/26 18:50:43;;;;;;;;;21.25;19.25;;;;;;;;8608032;41;10743;-60
2021/06/26 18:56:45;;;;;;;;;24.75;23.75;;;;;;;;8609637;41;10643;-61
2021/06/26 19:02:48;;;;;;;;;21.25;20.00;;;;;;;;8608802;41;10680;-60
2021/06/26 19:08:53;;;;;;;;;31.25;26.00;;;;;;;;8590249;41;10715;-60
2021/06/26 19:14:55;;;;;;;;;44.75;38.75;;;;;;;;8584933;41;10719;-62
2021/06/26 19:20:58;;;;;;;;;35.00;33.50;;;;;;;;8586535;41;10751;-61
2021/06/26 19:27:00;;;;;;;;;30.00;27.50;;;;;;;;8585758;41;10740;-60
2021/06/26 19:33:02;;;;;;;;;25.75;22.25;;;;;;;;8586872;41;10673;-61
2021/06/26 19:39:04;;;;;;;;;24.25;23.25;;;;;;;;8584978;41;10645;-61
2021/06/26 19:45:07;;;;;;;;;22.00;20.75;;;;;;;;8585362;41;10759;-61
2021/06/26 19:51:09;;;;;;;;;23.00;21.00;;;;;;;;8585899;41;11370;-61
2021/06/26 19:57:11;;;;;;;;;21.00;18.75;;;;;;;;8592082;41;10816;-61
2021/06/26 20:03:13;;;;;;;;;19.75;19.25;;;;;;;;8589792;41;11277;-61
2021/06/26 20:09:15;;;;;;;;;19.00;17.00;;;;;;;;8606559;41;10605;-61
2021/06/26 20:15:18;;;;;;;;;16.50;15.00;;;;;;;;8611282;41;10679;-62
2021/06/26 20:21:20;;;;;;;;;16.75;14.00;;;;;;;;8611698;41;10678;-60
2021/06/26 20:27:22;;;;;;;;;22.50;17.75;;;;;;;;8610336;41;10686;-61
2021/06/26 20:33:24;;;;;;;;;14.25;13.25;;;;;;;;8611684;41;10738;-60
2021/06/26 20:39:26;;;;;;;;;14.00;13.00;;;;;;;;8592119;41;10641;-59
2021/06/26 20:45:28;;;;;;;;;13.75;13.75;;;;;;;;8588524;41;10627;-60
2021/06/26 20:51:31;;;;;;;;;17.50;14.50;;;;;;;;8587632;41;10731;-60
2021/06/26 20:57:33;;;;;;;;;23.75;21.25;;;;;;;;8591671;41;10707;-60
2021/06/26 21:03:45;;;;;;;;;10.75;10.75;;;;;;;;8588258;41;10769;-60
2021/06/26 21:09:47;;;;;;;;;14.75;12.75;;;;;;;;8587088;41;11293;-60
2021/06/26 21:15:49;;;;;;;;;9.75;9.75;;;;;;;;8587876;41;11199;-60
2021/06/26 21:21:51;;;;;;;;;8.25;8.25;;;;;;;;8587140;41;10804;-61
2021/06/26 21:27:54;;;;;;;;;9.00;6.50;;;;;;;;8593005;41;11162;-60
2021/06/26 21:33:56;;;;;;;;;8.25;6.00;;;;;;;;8609400;41;10586;-60
2021/06/26 21:39:58;;;;;;;;;7.00;5.75;;;;;;;;8610082;41;10523;-62
2021/06/26 21:46:00;;;;;;;;;4.50;4.50;;;;;;;;8610261;41;10641;-61
2021/06/26 21:52:02;;;;;;;;;6.00;5.25;;;;;;;;8610498;41;10563;-59
2021/06/26 21:58:05;;;;;;;;;5.00;4.50;;;;;;;;8610209;41;10551;-61
2021/06/26 22:04:10;;;;;;;;;7.00;5.50;;;;;;;;8609079;41;10533;-59
2021/06/26 22:10:12;;;;;;;;;6.00;5.00;;;;;;;;8589739;41;10860;-61
2021/06/26 22:16:15;;;;;;;;;6.00;4.00;;;;;;;;8586629;41;10589;-60
2021/06/26 22:22:17;;;;;;;;;6.00;4.00;;;;;;;;8586975;41;10926;-59
2021/06/26 22:28:19;;;;;;;;;6.00;3.50;;;;;;;;8595630;41;10470;-58
2021/06/26 22:34:21;;;;;;;;;6.50;4.00;;;;;;;;8608712;41;10586;-60
2021/06/26 22:40:23;;;;;;;;;5.00;4.75;;;;;;;;8608776;41;10555;-60
2021/06/26 22:46:25;;;;;;;;;8.25;6.00;;;;;;;;8609267;41;10771;-60
2021/06/26 22:52:27;;;;;;;;;7.25;5.50;;;;;;;;8608263;41;10511;-60
2021/06/26 22:58:30;;;;;;;;;5.25;4.00;;;;;;;;8610148;41;10604;-60
2021/06/26 23:04:32;;;;;;;;;4.75;3.75;;;;;;;;8604108;41;10559;-60
2021/06/26 23:10:37;;;;;;;;;5.50;5.50;;;;;;;;8587596;41;10615;-60
2021/06/26 23:16:40;;;;;;;;;6.50;5.75;;;;;;;;8585696;41;10562;-60
2021/06/26 23:22:42;;;;;;;;;8.50;7.25;;;;;;;;8589193;41;10781;-60
2021/06/26 23:28:44;;;;;;;;;7.25;6.00;;;;;;;;8585588;41;10737;-60
2021/06/26 23:34:46;;;;;;;;;8.00;5.00;;;;;;;;8584669;41;10776;-60
2021/06/26 23:40:51;;;;;;;;;4.25;2.25;;;;;;;;8601757;41;10623;-60
2021/06/26 23:46:53;;;;;;;;;6.25;6.00;;;;;;;;8609816;41;10737;-60
2021/06/26 23:52:55;;;;;;;;;2.75;2.75;;;;;;;;8607945;41;10740;-61
2021/06/26 23:58:57;;;;;;;;;5.00;4.50;;;;;;;;8609516;41;10615;-60
